Time;durP1;ratioP1;P1;durP2;ratioP2;P2;SDS_P1;SDS_P2;PMS_P1;PMS_P2;Temp;Humidity;BMP_temperature;BMP_pressure;BME280_temperature;BME280_humidity;BME280_pressure;Samples;Min_cycle;Max_cycle;Signal;HPM_P1;HPM_P2
2022/06/01 00:01:18;;;;;;;16.50;10.50;;;20.30;65.70;;;;;;7687485;23;20035;-72
2022/06/01 00:04:20;;;;;;;13.32;8.32;;;20.30;65.90;;;;;;7685790;23;20289;-72
2022/06/01 00:07:23;;;;;;;12.90;7.70;;;20.30;66.20;;;;;;7709591;23;20450;-72
2022/06/01 00:10:24;;;;;;;17.63;9.85;;;20.20;66.40;;;;;;7687293;23;20012;-72
2022/06/01 00:13:26;;;;;;;68.88;38.80;;;20.20;66.70;;;;;;7737463;23;20780;-72
2022/06/01 00:16:27;;;;;;;92.90;53.63;;;20.20;66.90;;;;;;7687400;23;20087;-72
2022/06/01 00:19:28;;;;;;;108.35;60.28;;;20.20;67.00;;;;;;7685982;23;20004;-71
2022/06/01 00:22:29;;;;;;;107.03;62.35;;;20.10;67.10;;;;;;7687253;23;20036;-71
2022/06/01 00:25:30;;;;;;;85.85;50.85;;;20.20;67.20;;;;;;7712669;23;20080;-71
2022/06/01 00:28:32;;;;;;;27.58;14.63;;;20.10;67.30;;;;;;7686364;23;20040;-72
2022/06/01 00:31:33;;;;;;;27.70;15.95;;;20.10;67.50;;;;;;7687269;23;20461;-71
2022/06/01 00:34:34;;;;;;;11.98;7.90;;;20.20;67.70;;;;;;7736466;23;20013;-71
2022/06/01 00:37:35;;;;;;;12.35;6.72;;;20.10;67.80;;;;;;7736906;23;20016;-71
2022/06/01 00:40:36;;;;;;;9.85;5.70;;;20.10;68.00;;;;;;7737232;23;20027;-71
2022/06/01 00:43:42;;;;;;;11.80;6.18;;;20.10;68.10;;;;;;7686742;23;20420;-71
2022/06/01 00:46:43;;;;;;;8.25;5.13;;;20.00;68.10;;;;;;7713467;23;20151;-71
2022/06/01 00:49:51;;;;;;;9.25;5.55;;;20.00;68.20;;;;;;7687928;23;20021;-71
2022/06/01 00:53:01;;;;;;;10.60;6.28;;;20.00;68.30;;;;;;7685159;23;20016;-71
2022/06/01 00:56:14;;;;;;;17.58;7.93;;;20.00;68.20;;;;;;7688417;23;20020;-71
2022/06/01 00:59:19;;;;;;;13.82;5.60;;;20.00;68.30;;;;;;7713859;23;20411;-71
2022/06/01 01:02:20;;;;;;;8.10;5.05;;;20.00;68.20;;;;;;7687528;23;20370;-71
2022/06/01 01:05:23;;;;;;;8.70;4.85;;;20.00;68.20;;;;;;7714075;23;20019;-71
2022/06/01 01:08:24;;;;;;;5.53;3.85;;;20.00;68.20;;;;;;7714076;23;20027;-71
2022/06/01 16:49:44;;;;;;;11.52;4.82;;;32.50;28.40;;;;;;7036249;23;20009;-72
2022/06/01 16:52:45;;;;;;;33.58;16.65;;;32.20;28.80;;;;;;7686887;23;20027;-70
2022/06/01 16:55:47;;;;;;;23.75;12.23;;;31.90;29.10;;;;;;7713309;23;20009;-72
2022/06/01 16:58:48;;;;;;;9.40;3.80;;;31.70;29.40;;;;;;7712850;23;20364;-71
2022/06/01 17:01:49;;;;;;;13.25;6.35;;;31.50;29.80;;;;;;7712999;23;20111;-73
2022/06/01 17:04:50;;;;;;;19.02;8.68;;;31.40;30.00;;;;;;7686810;23;20024;-73
2022/06/01 17:07:51;;;;;;;24.40;13.15;;;31.30;30.10;;;;;;7712570;23;20098;-72
2022/06/01 17:10:55;;;;;;;24.95;13.57;;;31.10;30.30;;;;;;7686581;23;20022;-72
2022/06/01 17:13:56;;;;;;;12.95;5.45;;;30.80;30.70;;;;;;7686761;23;20055;-72
2022/06/01 17:16:57;;;;;;;7.70;4.55;;;30.60;31.10;;;;;;7712845;23;20016;-71
2022/06/01 17:19:59;;;;;;;8.05;3.63;;;30.40;31.50;;;;;;7737174;23;20083;-71
2022/06/01 17:23:00;;;;;;;13.05;6.95;;;30.20;31.90;;;;;;7694873;23;20020;-71
2022/06/01 17:26:01;;;;;;;19.42;9.73;;;30.00;32.10;;;;;;7687675;23;20078;-71
2022/06/01 17:29:04;;;;;;;22.65;12.45;;;29.90;32.20;;;;;;7686387;23;20031;-72
2022/06/01 17:32:10;;;;;;;31.73;16.63;;;29.90;32.30;;;;;;7736271;23;20029;-72
2022/06/01 17:35:17;;;;;;;18.85;10.55;;;29.90;32.20;;;;;;7686579;23;20095;-72
2022/06/01 17:38:18;;;;;;;19.05;9.77;;;29.90;32.10;;;;;;7684073;23;20070;-72
2022/06/01 17:41:19;;;;;;;14.02;6.40;;;29.80;32.00;;;;;;7712283;23;20021;-71
2022/06/01 17:44:21;;;;;;;11.02;5.38;;;29.90;32.20;;;;;;7712890;23;20106;-72
2022/06/01 17:47:24;;;;;;;34.22;16.33;;;29.80;32.20;;;;;;7712761;23;20108;-71
2022/06/01 17:50:25;;;;;;;13.98;7.38;;;29.80;32.40;;;;;;7724291;22;20036;-71
2022/06/01 17:53:29;;;;;;;9.50;4.25;;;29.70;32.60;;;;;;7698464;23;20017;-71
2022/06/01 17:56:34;;;;;;;10.60;5.07;;;29.70;32.90;;;;;;7699150;23;20051;-73
2022/06/01 17:59:35;;;;;;;9.32;3.38;;;29.50;33.30;;;;;;7675659;23;20309;-72
2022/06/01 18:02:39;;;;;;;13.77;5.78;;;29.50;33.80;;;;;;7675108;23;20111;-72
2022/06/01 18:05:41;;;;;;;10.63;5.07;;;29.30;34.20;;;;;;7675535;23;20013;-72
2022/06/01 18:08:44;;;;;;;10.75;3.80;;;29.20;34.60;;;;;;7674610;23;20027;-71
2022/06/01 18:11:45;;;;;;;6.55;3.60;;;29.10;34.80;;;;;;7724225;23;20320;-72
2022/06/01 18:14:46;;;;;;;9.27;3.95;;;29.00;35.00;;;;;;7699068;23;20032;-73
2022/06/01 18:17:47;;;;;;;6.88;2.90;;;28.90;35.10;;;;;;7674155;23;20044;-71
2022/06/01 18:20:51;;;;;;;6.32;3.83;;;28.80;35.30;;;;;;7676021;23;20013;-71
2022/06/01 18:23:52;;;;;;;8.80;4.03;;;28.70;35.40;;;;;;7674644;23;20040;-72
2022/06/01 18:26:54;;;;;;;10.85;3.05;;;28.60;35.50;;;;;;7674385;23;20427;-71
2022/06/01 18:29:56;;;;;;;10.38;4.88;;;28.50;35.60;;;;;;7673905;23;20068;-70
2022/06/01 18:32:57;;;;;;;32.15;12.65;;;28.40;35.80;;;;;;7673660;23;20095;-70
2022/06/01 18:35:59;;;;;;;13.75;6.60;;;28.30;36.00;;;;;;7674988;23;20083;-70
2022/06/01 18:39:01;;;;;;;7.47;3.58;;;28.20;36.30;;;;;;7674599;23;20020;-72
2022/06/01 18:42:02;;;;;;;9.27;4.50;;;28.10;36.40;;;;;;7672991;23;20013;-71
2022/06/01 18:45:03;;;;;;;5.30;3.20;;;28.10;36.60;;;;;;7673429;23;20028;-71
2022/06/01 18:48:05;;;;;;;5.50;3.30;;;28.00;36.70;;;;;;7674974;23;20092;-73
2022/06/01 18:51:14;;;;;;;4.53;2.70;;;27.90;36.80;;;;;;7710503;23;20048;-72
2022/06/01 18:54:18;;;;;;;6.30;2.80;;;27.90;36.90;;;;;;7711105;23;20116;-72
2022/06/01 18:57:20;;;;;;;7.20;2.60;;;27.80;36.80;;;;;;7686354;23;20020;-72
2022/06/01 19:03:41;;;;;;;22.75;6.30;;;27.70;37.20;;;;;;7710690;23;20028;-72
2022/06/01 19:06:50;;;;;;;14.23;6.53;;;27.70;37.90;;;;;;7684889;23;20098;-72
2022/06/01 19:09:51;;;;;;;10.10;5.95;;;27.60;38.40;;;;;;7683158;23;20071;-71
2022/06/01 19:12:52;;;;;;;19.08;8.40;;;27.50;38.50;;;;;;7684926;23;20008;-71
2022/06/01 19:15:53;;;;;;;11.32;5.20;;;27.50;38.60;;;;;;7686455;23;20020;-72
2022/06/01 19:18:56;;;;;;;13.13;4.40;;;27.50;38.80;;;;;;7686521;23;20039;-71
2022/06/01 19:22:00;;;;;;;9.77;4.30;;;27.40;39.80;;;;;;7685140;23;20047;-71
2022/06/01 19:25:03;;;;;;;11.88;5.93;;;27.30;39.30;;;;;;7736626;23;20403;-71
2022/06/01 19:28:07;;;;;;;11.55;5.28;;;27.30;39.50;;;;;;7712782;23;20023;-71
2022/06/01 19:31:08;;;;;;;5.85;3.72;;;27.20;39.60;;;;;;7661923;23;20019;-72
2022/06/01 19:34:09;;;;;;;4.70;2.60;;;27.20;39.80;;;;;;7712730;23;20013;-71
2022/06/01 19:44:06;;;;;;;14.57;6.47;;;27.00;40.80;;;;;;7736769;23;20082;-71
2022/06/01 19:47:08;;;;;;;12.02;5.32;;;26.90;40.90;;;;;;7710668;23;20020;-71
2022/06/01 19:50:10;;;;;;;6.28;4.22;;;26.80;41.10;;;;;;7710635;23;20305;-71
2022/06/01 19:53:12;;;;;;;7.20;3.50;;;26.70;41.40;;;;;;7710174;23;20012;-71
2022/06/01 19:56:13;;;;;;;18.95;10.20;;;26.70;41.50;;;;;;7683443;23;20036;-71
2022/06/01 19:59:17;;;;;;;38.67;18.27;;;26.60;41.70;;;;;;7684358;23;20012;-71
2022/06/01 20:02:20;;;;;;;31.20;14.07;;;26.60;41.70;;;;;;7684428;23;20017;-71
2022/06/01 20:05:21;;;;;;;24.58;12.45;;;26.50;41.80;;;;;;7710742;23;20370;-72
2022/06/01 20:08:23;;;;;;;14.13;5.50;;;26.50;41.90;;;;;;7734996;23;20087;-72
2022/06/01 20:14:47;;;;;;;8.38;3.00;;;26.50;42.30;;;;;;7708332;23;20092;-70
2022/06/01 20:17:48;;;;;;;3.50;2.17;;;26.40;42.60;;;;;;7708577;23;20032;-70
2022/06/01 20:20:49;;;;;;;6.80;2.70;;;26.30;42.80;;;;;;7682804;23;20012;-71
2022/06/01 20:23:50;;;;;;;6.60;3.45;;;26.30;43.10;;;;;;7681438;23;20016;-72
2022/06/01 20:26:51;;;;;;;14.50;3.30;;;26.20;43.20;;;;;;7682592;23;20017;-71
2022/06/01 20:29:53;;;;;;;3.65;2.33;;;26.20;43.40;;;;;;7708505;23;20021;-70
2022/06/01 20:32:54;;;;;;;5.90;3.22;;;26.10;43.60;;;;;;7708315;23;20086;-72
2022/06/01 20:35:55;;;;;;;10.95;6.45;;;26.10;43.70;;;;;;7709187;23;20075;-72
2022/06/01 20:38:58;;;;;;;23.88;7.07;;;26.10;44.10;;;;;;7681251;23;20040;-72
2022/06/01 20:41:59;;;;;;;9.48;2.75;;;26.00;44.30;;;;;;7683555;23;20009;-71
2022/06/01 20:45:00;;;;;;;11.10;5.05;;;26.00;44.60;;;;;;7709322;23;20013;-71
2022/06/01 20:48:02;;;;;;;15.48;5.68;;;25.90;44.70;;;;;;7708517;23;20017;-72
2022/06/01 20:51:07;;;;;;;6.97;2.90;;;25.80;44.70;;;;;;7732970;23;20040;-72
2022/06/01 20:54:08;;;;;;;5.63;2.55;;;25.80;44.90;;;;;;7709019;23;20023;-72
2022/06/01 20:57:10;;;;;;;4.57;2.08;;;25.80;45.20;;;;;;7708811;23;20008;-73
2022/06/01 21:00:16;;;;;;;9.25;2.95;;;25.70;45.30;;;;;;7709124;23;20005;-72
2022/06/01 21:03:17;;;;;;;17.38;2.97;;;25.70;45.50;;;;;;7682861;23;20091;-71
2022/06/01 21:06:20;;;;;;;8.20;2.55;;;25.60;45.70;;;;;;7733210;23;20016;-71
2022/06/01 21:09:22;;;;;;;2.70;2.38;;;25.60;46.10;;;;;;7710568;23;20047;-73
2022/06/01 21:12:23;;;;;;;4.32;2.25;;;25.60;46.30;;;;;;7735300;23;20016;-71
2022/06/01 21:15:25;;;;;;;4.38;2.80;;;25.50;46.40;;;;;;7734773;23;20013;-71
2022/06/01 21:18:26;;;;;;;5.55;3.13;;;25.50;46.40;;;;;;7710223;23;20432;-71
2022/06/01 21:21:28;;;;;;;6.97;3.50;;;25.50;46.30;;;;;;7710572;23;20151;-72
2022/06/01 21:24:29;;;;;;;9.63;3.10;;;25.50;46.30;;;;;;7709583;23;20036;-71
2022/06/01 21:27:31;;;;;;;4.82;2.60;;;25.50;46.50;;;;;;7710305;23;20084;-71
2022/06/01 21:30:32;;;;;;;8.80;3.63;;;25.50;46.70;;;;;;7684790;23;20013;-71
2022/06/01 21:33:34;;;;;;;5.75;3.15;;;25.40;46.80;;;;;;7732981;23;20028;-71
2022/06/01 21:36:35;;;;;;;11.68;3.22;;;25.40;46.90;;;;;;7709701;23;20043;-71
2022/06/01 21:39:37;;;;;;;7.50;3.08;;;25.40;47.20;;;;;;7684221;23;20009;-70
2022/06/01 21:42:39;;;;;;;3.63;3.10;;;25.40;47.50;;;;;;7734582;23;20320;-71
2022/06/01 21:45:41;;;;;;;4.70;2.60;;;25.30;48.00;;;;;;7710252;23;20016;-71
2022/06/01 21:48:42;;;;;;;4.10;2.70;;;25.20;48.40;;;;;;7684138;23;20024;-71
2022/06/01 21:51:43;;;;;;;4.28;2.63;;;25.10;48.70;;;;;;7710167;23;20030;-71
2022/06/01 21:54:45;;;;;;;6.97;3.35;;;25.10;49.00;;;;;;7734542;22;20012;-71
2022/06/01 21:57:48;;;;;;;7.18;2.83;;;25.00;49.20;;;;;;7732940;23;20046;-71
2022/06/01 22:00:50;;;;;;;5.47;3.00;;;25.00;49.50;;;;;;7684986;23;20047;-71
2022/06/01 22:03:52;;;;;;;5.35;3.30;;;25.00;50.00;;;;;;7684279;23;20027;-71
2022/06/01 22:06:53;;;;;;;6.43;2.92;;;24.90;49.80;;;;;;7684156;23;20021;-71
2022/06/01 22:09:54;;;;;;;9.55;2.55;;;24.90;49.90;;;;;;7709880;23;20331;-71
2022/06/01 22:12:56;;;;;;;6.10;3.10;;;24.90;49.90;;;;;;7709160;23;20041;-72
2022/06/01 22:15:57;;;;;;;6.57;2.97;;;24.90;50.00;;;;;;7708509;22;20005;-70
2022/06/01 22:18:59;;;;;;;7.63;3.30;;;24.90;49.70;;;;;;7683880;23;20008;-71
2022/06/01 22:22:00;;;;;;;13.63;5.68;;;24.90;49.70;;;;;;7709496;23;20074;-72
2022/06/01 22:25:02;;;;;;;30.35;15.77;;;24.90;49.50;;;;;;7709812;23;20035;-72
2022/06/01 22:28:03;;;;;;;27.90;14.23;;;24.90;49.50;;;;;;7710273;23;20476;-71
2022/06/01 22:31:04;;;;;;;29.05;14.57;;;24.90;49.40;;;;;;7658915;23;20319;-71
2022/06/01 22:34:07;;;;;;;11.27;4.43;;;24.90;49.30;;;;;;7684019;23;20013;-71
2022/06/01 22:37:17;;;;;;;8.98;3.55;;;24.90;49.30;;;;;;7709967;23;20019;-72
2022/06/01 22:40:20;;;;;;;11.45;3.20;;;24.80;49.20;;;;;;7710881;23;20343;-73
2022/06/01 22:43:21;;;;;;;11.50;3.30;;;24.80;49.20;;;;;;7711709;23;20059;-72
2022/06/01 22:46:23;;;;;;;6.53;3.00;;;24.80;49.20;;;;;;7682881;23;20447;-71
2022/06/01 22:49:26;;;;;;;4.60;2.63;;;24.70;49.20;;;;;;7712375;23;20028;-70
2022/06/01 22:52:32;;;;;;;5.43;3.10;;;24.70;49.30;;;;;;7712149;23;20016;-71
2022/06/01 22:55:34;;;;;;;5.38;3.15;;;24.70;49.50;;;;;;7685447;23;20110;-71
2022/06/01 22:58:39;;;;;;;10.15;3.58;;;24.60;49.70;;;;;;7711409;23;20305;-71
2022/06/01 23:01:40;;;;;;;6.80;3.63;;;24.60;50.00;;;;;;7686011;23;20829;-71
2022/06/01 23:04:41;;;;;;;8.13;3.65;;;24.50;50.20;;;;;;7711421;23;20024;-72
2022/06/01 23:07:44;;;;;;;11.77;3.38;;;24.50;50.40;;;;;;7711792;23;20028;-72
2022/06/01 23:10:45;;;;;;;10.20;4.22;;;24.50;50.60;;;;;;7685500;23;20016;-71
2022/06/01 23:13:46;;;;;;;14.70;4.93;;;24.40;50.80;;;;;;7685775;23;20016;-71
2022/06/01 23:16:47;;;;;;;11.70;6.03;;;24.40;50.80;;;;;;7711576;23;20037;-72
2022/06/01 23:19:49;;;;;;;21.52;8.95;;;24.40;50.70;;;;;;7683924;23;20016;-71
2022/06/01 23:22:50;;;;;;;20.98;7.28;;;24.30;50.70;;;;;;7735150;23;20305;-72
2022/06/01 23:25:57;;;;;;;22.27;11.05;;;24.30;50.70;;;;;;7710505;23;20078;-71
2022/06/01 23:29:30;;;;;;;32.03;16.88;;;24.30;50.80;;;;;;7710456;23;20048;-72
2022/06/01 23:32:55;;;;;;;16.20;7.00;;;24.20;51.00;;;;;;7711047;23;20023;-72
2022/06/01 23:36:22;;;;;;;14.98;6.32;;;24.20;51.40;;;;;;7732779;23;20013;-72
2022/06/01 23:40:00;;;;;;;14.98;5.38;;;24.10;51.60;;;;;;7706480;23;20012;-71
2022/06/01 23:43:29;;;;;;;5.55;3.80;;;24.00;51.70;;;;;;7706579;23;20020;-72
2022/06/01 23:46:47;;;;;;;8.07;3.20;;;24.00;51.90;;;;;;7707259;23;20009;-71
2022/06/01 23:50:09;;;;;;;7.55;3.75;;;24.00;52.10;;;;;;7682047;23;20136;-71
2022/06/01 23:53:22;;;;;;;8.52;3.35;;;23.90;52.30;;;;;;7730982;23;20017;-71
2022/06/01 23:56:52;;;;;;;7.25;3.20;;;23.80;52.50;;;;;;7731563;22;20071;-71
2022/06/01 23:59:53;;;;;;;6.57;2.85;;;23.70;52.60;;;;;;7709297;23;20036;-72
